createdAt,value
2019-02-15T00:01:27.405Z,69.00
2019-02-15T00:03:57.415Z,70.00
2019-02-15T00:06:27.245Z,69.20
2019-02-15T00:08:58.574Z,69.10
2019-02-15T00:11:28.271Z,70.10
2019-02-15T00:13:57.983Z,71.30
2019-02-15T00:16:26.891Z,71.30
2019-02-15T00:19:25.747Z,71.50
2019-02-15T00:21:55.775Z,71.10
2019-02-15T00:24:25.920Z,72.00
2019-02-15T00:26:56.197Z,72.40
2019-02-15T00:29:26.290Z,73.30
2019-02-15T00:31:56.459Z,73.80
2019-02-15T00:34:27.545Z,74.50
2019-02-15T00:36:58.063Z,74.60
2019-02-15T00:39:28.162Z,75.70
2019-02-15T00:42:01.097Z,74.90
2019-02-15T00:44:31.772Z,74.70
2019-02-15T00:47:19.440Z,75.00
2019-02-15T00:50:22.063Z,74.90
2019-02-15T00:52:57.967Z,75.90
2019-02-15T00:55:39.352Z,76.80
2019-02-15T00:58:31.110Z,76.10
2019-02-15T01:01:06.559Z,76.30
2019-02-15T01:03:49.942Z,76.90
2019-02-15T01:06:50.448Z,77.00
2019-02-15T01:09:40.693Z,78.00
2019-02-15T01:12:20.915Z,76.30
2019-02-15T01:14:51.695Z,75.40
2019-02-15T01:17:20.983Z,75.60
2019-02-15T01:19:50.869Z,75.60
2019-02-15T01:22:20.612Z,75.60
2019-02-15T01:24:51.163Z,73.90
2019-02-15T01:27:32.938Z,74.00
2019-02-15T01:30:25.350Z,74.60
2019-02-15T01:33:11.575Z,75.50
2019-02-15T01:36:13.081Z,76.20
2019-02-15T01:39:09.445Z,75.90
2019-02-15T01:41:57.961Z,76.10
2019-02-15T01:44:34.343Z,77.10
2019-02-15T01:47:14.206Z,77.30
2019-02-15T01:49:43.151Z,76.70
2019-02-15T01:52:13.858Z,76.60
2019-02-15T01:54:44.198Z,77.50
2019-02-15T01:57:13.311Z,78.00
2019-02-15T01:59:42.473Z,77.50
2019-02-15T02:02:13.745Z,77.90
2019-02-15T02:04:45.748Z,77.70
2019-02-15T02:07:15.845Z,78.50
2019-02-15T02:09:44.765Z,78.90
2019-02-15T02:12:13.998Z,78.80
2019-02-15T02:14:45.195Z,78.30
2019-02-15T02:17:16.123Z,78.20
2019-02-15T02:19:45.431Z,77.40
2019-02-15T02:22:14.511Z,79.00
2019-02-15T02:24:44.805Z,79.90
2019-02-15T02:27:14.420Z,79.90
2019-02-15T02:29:44.442Z,80.50
2019-02-15T02:32:14.682Z,80.00
2019-02-15T02:34:45.515Z,79.50
2019-02-15T02:37:17.130Z,80.30
2019-02-15T02:39:48.537Z,80.50
2019-02-15T02:42:18.341Z,80.60
2019-02-15T02:44:48.340Z,80.00
2019-02-15T02:47:19.447Z,79.80
2019-02-15T02:49:50.874Z,80.40
2019-02-15T02:52:21.826Z,80.60
2019-02-15T02:54:51.851Z,80.30
2019-02-15T02:57:21.472Z,80.70
2019-02-15T02:59:51.923Z,80.70
2019-02-15T03:02:21.558Z,81.10
2019-02-15T03:04:51.447Z,78.60
2019-02-15T03:07:21.415Z,78.00
2019-02-15T03:09:52.749Z,79.00
2019-02-15T03:12:23.230Z,77.40
2019-02-15T03:14:52.491Z,76.80
2019-02-15T03:17:22.833Z,77.90
2019-02-15T03:19:52.206Z,78.60
2019-02-15T03:22:21.802Z,79.40
2019-02-15T03:24:51.299Z,79.50
2019-02-15T03:27:22.120Z,79.20
2019-02-15T03:29:52.538Z,78.30
2019-02-15T03:32:23.407Z,79.60
2019-02-15T03:34:53.745Z,80.50
2019-02-15T03:37:52.787Z,80.30
2019-02-15T03:40:32.692Z,80.70
2019-02-15T03:43:04.662Z,81.40
2019-02-15T03:45:34.704Z,81.30
2019-02-15T03:48:04.665Z,81.40
2019-02-15T03:50:34.308Z,81.80
2019-02-15T03:53:06.578Z,82.60
2019-02-15T03:55:37.283Z,82.30
2019-02-15T03:58:06.924Z,82.10
2019-02-15T04:00:37.595Z,81.30
2019-02-15T04:03:07.449Z,78.40
2019-02-15T04:05:37.217Z,77.20
2019-02-15T04:08:08.211Z,76.50
2019-02-15T04:10:41.546Z,75.50
2019-02-15T04:13:15.342Z,74.50
2019-02-15T04:15:45.853Z,73.50
2019-02-15T04:18:15.026Z,73.60
2019-02-15T04:20:48.324Z,74.20
2019-02-15T04:23:18.262Z,74.40
2019-02-15T04:25:49.403Z,74.60
2019-02-15T04:28:19.308Z,74.70
2019-02-15T04:30:48.069Z,74.20
2019-02-15T04:33:17.156Z,73.00
2019-02-15T04:35:47.680Z,72.60
2019-02-15T04:38:18.215Z,73.10
2019-02-15T04:40:48.875Z,72.30
2019-02-15T04:43:18.778Z,73.10
2019-02-15T04:45:49.114Z,72.50
2019-02-15T04:48:19.569Z,70.70
2019-02-15T04:50:49.975Z,70.00
2019-02-15T04:53:19.588Z,70.10
2019-02-15T04:55:49.475Z,70.10
2019-02-15T04:58:20.455Z,70.90
2019-02-15T05:00:50.639Z,71.60
2019-02-15T05:03:20.517Z,72.50
2019-02-15T05:05:50.474Z,74.30
2019-02-15T05:08:19.896Z,72.70
2019-02-15T05:10:50.181Z,73.40
2019-02-15T05:13:20.529Z,73.90
2019-02-15T05:15:49.551Z,76.20
2019-02-15T05:18:21.302Z,76.60
2019-02-15T05:20:51.282Z,75.50
2019-02-15T05:23:21.143Z,75.70
2019-02-15T05:25:52.438Z,75.00
2019-02-15T05:28:23.594Z,74.80
2019-02-15T05:30:55.035Z,72.90
2019-02-15T05:33:23.988Z,73.80
2019-02-15T05:35:53.632Z,72.50
2019-02-15T05:38:22.832Z,74.00
2019-02-15T05:40:52.207Z,76.50
2019-02-15T05:43:22.428Z,75.80
2019-02-15T05:45:52.312Z,76.60
2019-02-15T05:48:22.711Z,73.80
2019-02-15T05:50:52.994Z,74.40
2019-02-15T05:53:23.977Z,76.10
2019-02-15T05:55:54.248Z,77.40
2019-02-15T05:58:24.550Z,79.10
2019-02-15T06:00:53.905Z,78.20
2019-02-15T06:03:24.615Z,78.60
2019-02-15T06:05:55.197Z,78.00
2019-02-15T06:08:26.141Z,77.80
2019-02-15T06:11:06.514Z,76.50
2019-02-15T06:13:29.430Z,76.60
2019-02-15T06:15:58.414Z,74.80
2019-02-15T06:18:28.009Z,75.20
2019-02-15T06:21:00.549Z,75.10
2019-02-15T06:23:29.865Z,75.90
2019-02-15T06:26:01.167Z,75.80
2019-02-15T06:28:31.756Z,74.20
2019-02-15T06:31:01.893Z,74.90
2019-02-15T06:33:31.286Z,75.20
2019-02-15T06:36:01.641Z,75.10
2019-02-15T06:38:34.833Z,73.90
2019-02-15T06:41:03.758Z,74.70
2019-02-15T06:43:35.136Z,74.80
2019-02-15T06:46:06.021Z,73.90
2019-02-15T06:48:36.709Z,72.50
2019-02-15T06:51:07.034Z,70.80
2019-02-15T06:53:38.653Z,71.40
2019-02-15T06:56:11.133Z,69.60
2019-02-15T06:58:52.248Z,68.70
2019-02-15T07:01:32.052Z,70.30
2019-02-15T07:04:25.461Z,71.60
2019-02-15T07:06:55.382Z,70.90
2019-02-15T07:09:24.905Z,70.30
2019-02-15T07:11:56.039Z,70.20
2019-02-15T07:14:25.794Z,69.40
2019-02-15T07:16:57.669Z,69.30
2019-02-15T07:19:28.015Z,67.40
2019-02-15T07:21:58.273Z,65.00
2019-02-15T07:24:27.565Z,65.30
2019-02-15T07:26:56.951Z,64.20
2019-02-15T07:29:29.610Z,65.70
2019-02-15T07:31:59.270Z,65.10
2019-02-15T07:34:29.191Z,59.90
2019-02-15T07:37:01.122Z,61.60
2019-02-15T07:39:31.139Z,62.10
2019-02-15T07:42:01.571Z,62.20
2019-02-15T07:44:34.014Z,59.80
2019-02-15T07:47:03.599Z,58.70
2019-02-15T07:49:34.927Z,58.50
2019-02-15T08:04:50.353Z,56.40
2019-02-15T08:07:19.630Z,53.60
2019-02-15T08:09:49.148Z,53.50
2019-02-15T08:12:18.586Z,53.30
2019-02-15T08:14:48.247Z,51.50
2019-02-15T08:17:18.516Z,48.20
2019-02-15T08:19:50.846Z,47.10
2019-02-15T08:22:22.750Z,46.70
2019-02-15T08:24:55.956Z,45.80
2019-02-15T08:27:27.040Z,42.80
2019-02-15T08:29:59.123Z,42.50
2019-02-15T08:32:28.925Z,39.00
2019-02-15T08:34:59.661Z,36.60
2019-02-15T08:37:30.439Z,37.30
2019-02-15T08:40:00.976Z,38.00
2019-02-15T08:42:30.528Z,35.90
2019-02-15T08:45:01.456Z,31.60
2019-02-15T08:47:30.691Z,29.90
2019-02-15T08:50:03.996Z,29.30
2019-02-15T08:52:33.809Z,29.70
2019-02-15T08:55:04.198Z,29.40
2019-02-15T08:57:37.446Z,29.00
2019-02-15T09:00:10.299Z,28.60
2019-02-15T09:02:40.967Z,28.20
2019-02-15T09:05:13.095Z,28.10
2019-02-15T09:07:42.534Z,28.00
2019-02-15T09:10:14.509Z,27.70
2019-02-15T09:12:44.626Z,27.60
2019-02-15T09:15:18.958Z,27.50
2019-02-15T09:17:48.100Z,27.90
2019-02-15T09:20:18.628Z,27.50
2019-02-15T09:22:48.924Z,26.50
2019-02-15T09:25:19.657Z,26.70
2019-02-15T09:28:14.974Z,26.70
2019-02-15T09:30:48.333Z,26.90
2019-02-15T09:33:19.171Z,27.20
2019-02-15T09:35:49.646Z,27.20
2019-02-15T09:38:18.309Z,26.80
2019-02-15T09:40:50.424Z,25.70
2019-02-15T09:43:21.495Z,25.80
2019-02-15T09:45:52.628Z,26.00
2019-02-15T09:48:22.982Z,25.60
2019-02-15T09:50:52.913Z,25.50
2019-02-15T09:53:23.144Z,25.50
2019-02-15T09:55:53.966Z,24.80
2019-02-15T09:58:24.378Z,24.20
2019-02-15T10:00:54.001Z,23.40
2019-02-15T10:03:23.676Z,24.20
2019-02-15T10:05:53.941Z,24.30
2019-02-15T10:08:24.903Z,23.80
2019-02-15T10:10:54.431Z,22.80
2019-02-15T10:13:24.743Z,23.20
2019-02-15T10:15:54.781Z,22.70
2019-02-15T10:18:24.629Z,22.50
2019-02-15T10:20:54.676Z,23.30
2019-02-15T10:23:24.154Z,22.60
2019-02-15T10:25:53.644Z,21.80
2019-02-15T10:28:24.013Z,22.00
2019-02-15T10:30:54.721Z,22.20
2019-02-15T10:33:24.642Z,22.10
2019-02-15T10:35:54.089Z,22.30
2019-02-15T10:38:23.924Z,21.10
2019-02-15T10:40:54.281Z,21.10
2019-02-15T10:43:23.333Z,22.00
2019-02-15T10:45:53.070Z,21.80
2019-02-15T10:48:24.656Z,21.30
2019-02-15T10:50:56.297Z,21.00
2019-02-15T10:53:25.821Z,21.20
2019-02-15T10:55:56.592Z,21.30
2019-02-15T10:58:26.456Z,20.90
2019-02-15T11:00:56.055Z,20.70
2019-02-15T11:03:26.848Z,19.40
2019-02-15T11:05:56.217Z,19.90
2019-02-15T11:08:27.024Z,19.60
2019-02-15T11:10:58.125Z,19.80
2019-02-15T11:13:29.236Z,19.00
2019-02-15T11:16:00.062Z,19.00
2019-02-15T11:18:30.549Z,20.40
2019-02-15T11:21:00.235Z,19.40
2019-02-15T11:23:32.276Z,19.40
2019-02-15T11:26:04.593Z,19.30
2019-02-15T11:28:34.476Z,18.90
2019-02-15T11:31:04.813Z,19.00
2019-02-15T11:33:34.811Z,19.20
2019-02-15T11:36:05.806Z,19.40
2019-02-15T11:38:35.829Z,19.30
2019-02-15T11:41:11.131Z,18.30
2019-02-15T11:43:38.355Z,19.00
2019-02-15T11:46:08.704Z,18.60
2019-02-15T11:48:38.917Z,18.50
2019-02-15T11:51:08.638Z,18.30
2019-02-15T11:53:38.495Z,18.20
2019-02-15T11:56:09.910Z,19.00
2019-02-15T11:58:39.562Z,19.50
2019-02-15T12:01:10.487Z,19.10
2019-02-15T12:03:40.740Z,18.50
2019-02-15T12:06:11.858Z,18.80
2019-02-15T12:08:45.709Z,18.50
2019-02-15T12:11:14.952Z,19.00
2019-02-15T12:13:45.624Z,18.90
2019-02-15T12:16:15.566Z,18.40
2019-02-15T12:18:45.917Z,18.00
2019-02-15T12:21:16.108Z,18.20
2019-02-15T12:23:47.096Z,18.90
2019-02-15T12:26:17.062Z,18.50
2019-02-15T12:28:46.358Z,18.00
2019-02-15T12:31:18.196Z,17.80
2019-02-15T12:33:48.067Z,17.30
2019-02-15T12:36:17.239Z,17.80
2019-02-15T12:38:48.344Z,17.30
2019-02-15T12:41:18.103Z,17.20
2019-02-15T12:43:47.707Z,17.60
2019-02-15T12:46:17.846Z,18.00
2019-02-15T12:48:48.139Z,18.00
2019-02-15T12:51:17.026Z,17.90
2019-02-15T12:53:46.849Z,17.40
2019-02-15T12:56:18.346Z,17.00
2019-02-15T12:58:49.114Z,17.30
2019-02-15T13:01:19.230Z,17.80
2019-02-15T13:03:50.973Z,17.30
2019-02-15T13:06:28.711Z,16.80
2019-02-15T13:08:56.198Z,16.60
2019-02-15T13:11:26.697Z,16.50
2019-02-15T13:13:59.324Z,16.00
2019-02-15T13:16:30.188Z,16.40
2019-02-15T13:19:00.996Z,16.20
2019-02-15T13:21:30.506Z,15.70
2019-02-15T13:24:02.902Z,16.90
2019-02-15T13:26:33.030Z,17.10
2019-02-15T13:29:03.537Z,17.20
2019-02-15T13:31:41.652Z,17.50
2019-02-15T13:34:13.197Z,17.00
2019-02-15T13:36:46.314Z,17.20
2019-02-15T13:39:17.891Z,17.80
2019-02-15T13:41:48.092Z,18.10
2019-02-15T13:44:18.111Z,17.70
2019-02-15T13:46:47.741Z,18.20
2019-02-15T13:49:17.044Z,18.60
2019-02-15T13:51:48.936Z,18.00
2019-02-15T13:54:19.757Z,17.40
2019-02-15T13:56:50.276Z,18.10
2019-02-15T13:59:20.664Z,18.20
2019-02-15T14:01:52.723Z,18.60
2019-02-15T14:04:21.977Z,19.10
2019-02-15T14:06:55.463Z,19.20
2019-02-15T14:09:26.964Z,19.60
2019-02-15T14:11:57.342Z,19.60
2019-02-15T14:14:27.524Z,18.70
2019-02-15T14:16:58.163Z,18.60
2019-02-15T14:19:27.901Z,18.90
2019-02-15T14:21:58.795Z,19.30
2019-02-15T14:24:28.666Z,19.10
2019-02-15T14:27:00.253Z,19.60
2019-02-15T14:29:43.122Z,19.80
2019-02-15T14:32:14.133Z,20.10
2019-02-15T14:34:46.074Z,19.70
2019-02-15T14:37:18.503Z,19.60
2019-02-15T14:39:50.987Z,19.20
2019-02-15T14:42:20.326Z,20.00
2019-02-15T14:44:53.475Z,20.20
2019-02-15T14:47:25.869Z,20.70
2019-02-15T14:49:56.689Z,20.90
2019-02-15T14:52:26.831Z,21.10
2019-02-15T14:54:58.444Z,21.40
2019-02-15T14:57:30.574Z,21.40
2019-02-15T15:00:00.512Z,21.30
2019-02-15T15:02:30.094Z,21.80
2019-02-15T15:05:00.597Z,22.00
2019-02-15T15:07:32.078Z,22.70
2019-02-15T15:10:02.217Z,21.80
2019-02-15T15:12:33.159Z,22.10
2019-02-15T15:15:05.215Z,22.10
2019-02-15T15:17:34.937Z,21.50
2019-02-15T15:20:08.282Z,21.50
2019-02-15T15:22:38.644Z,22.20
2019-02-15T15:25:09.947Z,22.80
2019-02-15T15:27:39.987Z,23.10
2019-02-15T15:30:11.966Z,23.90
2019-02-15T15:32:40.977Z,23.90
2019-02-15T15:35:12.657Z,24.60
2019-02-15T15:37:43.317Z,24.60
2019-02-15T15:40:14.654Z,24.90
2019-02-15T15:42:44.783Z,25.30
2019-02-15T15:45:14.559Z,25.20
2019-02-15T15:47:45.005Z,25.20
2019-02-15T15:50:15.224Z,25.90
2019-02-15T15:52:45.666Z,26.40
2019-02-15T15:55:15.026Z,26.70
2019-02-15T15:57:44.679Z,26.50
2019-02-15T16:00:17.188Z,27.00
2019-02-15T16:02:46.744Z,26.90
2019-02-15T16:05:16.757Z,26.80
2019-02-15T16:07:48.321Z,27.10
2019-02-15T16:10:18.414Z,27.50
2019-02-15T16:12:48.095Z,27.90
2019-02-15T16:15:18.512Z,28.30
2019-02-15T16:17:50.145Z,28.20
2019-02-15T16:20:25.284Z,28.70
2019-02-15T16:22:55.737Z,28.30
2019-02-15T16:25:25.879Z,27.50
2019-02-15T16:27:55.983Z,27.60
2019-02-15T16:30:25.765Z,27.40
2019-02-15T16:32:55.327Z,27.50
2019-02-15T16:35:25.562Z,28.00
2019-02-15T16:37:57.030Z,28.00
2019-02-15T16:40:30.197Z,28.20
2019-02-15T16:43:00.631Z,28.50
2019-02-15T16:45:32.779Z,28.50
2019-02-15T16:48:02.265Z,28.80
2019-02-15T16:50:32.726Z,29.10
2019-02-15T16:53:06.530Z,29.10
2019-02-15T16:55:38.314Z,29.30
2019-02-15T16:58:08.886Z,29.70
2019-02-15T17:00:38.332Z,30.00
2019-02-15T17:03:12.549Z,29.60
2019-02-15T17:05:44.651Z,29.50
2019-02-15T17:08:17.514Z,29.40
2019-02-15T17:10:48.069Z,29.50
2019-02-15T17:13:20.433Z,29.50
2019-02-15T17:15:51.262Z,29.50
2019-02-15T17:18:21.677Z,29.60
2019-02-15T17:20:52.424Z,29.90
2019-02-15T17:23:23.517Z,29.20
2019-02-15T17:25:52.767Z,29.30
2019-02-15T17:28:23.053Z,29.50
2019-02-15T17:30:54.587Z,29.50
2019-02-15T17:33:27.474Z,29.70
2019-02-15T17:35:58.755Z,29.80
2019-02-15T17:38:29.457Z,29.80
2019-02-15T17:40:59.984Z,29.90
2019-02-15T17:43:30.356Z,30.00
2019-02-15T17:46:00.906Z,30.40
2019-02-15T17:48:31.303Z,30.20
2019-02-15T17:51:01.007Z,30.70
2019-02-15T17:53:33.202Z,31.00
2019-02-15T17:56:03.284Z,31.40
2019-02-15T17:58:35.182Z,32.30
2019-02-15T18:01:04.474Z,34.00
2019-02-15T18:03:35.472Z,34.30
2019-02-15T18:06:06.113Z,34.70
2019-02-15T18:08:36.776Z,34.30
2019-02-15T18:11:09.191Z,33.80
2019-02-15T18:13:39.512Z,34.00
2019-02-15T18:16:10.794Z,34.10
2019-02-15T18:18:43.158Z,34.10
2019-02-15T18:21:13.283Z,34.50
2019-02-15T18:23:46.136Z,34.80
2019-02-15T18:26:16.249Z,35.40
2019-02-15T18:28:47.546Z,36.40
2019-02-15T18:31:17.493Z,36.30
2019-02-15T18:33:49.607Z,37.40
2019-02-15T18:36:20.681Z,37.90
2019-02-15T18:38:51.155Z,38.30
2019-02-15T18:41:20.745Z,38.10
2019-02-15T18:43:49.712Z,37.90
2019-02-15T18:46:19.627Z,38.20
2019-02-15T18:48:49.706Z,38.50
2019-02-15T18:51:20.286Z,38.50
2019-02-15T18:53:50.935Z,38.70
2019-02-15T18:56:23.136Z,39.00
2019-02-15T18:58:54.241Z,39.20
2019-02-15T19:01:23.627Z,40.00
2019-02-15T19:03:56.105Z,39.60
2019-02-15T19:06:24.912Z,38.60
2019-02-15T19:08:56.945Z,38.70
2019-02-15T19:11:27.196Z,37.80
2019-02-15T19:13:58.031Z,37.60
2019-02-15T19:16:28.533Z,37.60
2019-02-15T19:18:58.686Z,37.70
2019-02-15T19:21:29.206Z,37.60
2019-02-15T19:23:59.039Z,37.90
2019-02-15T19:26:28.834Z,37.60
2019-02-15T19:28:59.531Z,37.70
2019-02-15T19:31:29.676Z,37.40
2019-02-15T19:34:00.540Z,38.10
2019-02-15T19:36:32.295Z,37.20
2019-02-15T19:39:04.571Z,37.00
2019-02-15T19:41:38.765Z,38.10
2019-02-15T19:44:09.095Z,37.40
2019-02-15T19:46:40.086Z,37.80
2019-02-15T19:49:11.269Z,37.00
2019-02-15T19:51:42.939Z,37.10
2019-02-15T19:54:13.526Z,37.30
2019-02-15T19:56:43.284Z,37.00
2019-02-15T19:59:13.378Z,37.40
2019-02-15T20:01:43.441Z,37.50
2019-02-15T20:04:15.975Z,37.60
2019-02-15T20:06:48.881Z,37.90
2019-02-15T20:09:18.228Z,36.70
2019-02-15T20:11:47.882Z,37.10
2019-02-15T20:14:18.461Z,37.90
2019-02-15T20:16:48.651Z,38.50
2019-02-15T20:19:18.188Z,39.80
2019-02-15T20:21:49.165Z,41.40
2019-02-15T20:24:19.812Z,42.20
2019-02-15T20:26:49.109Z,44.10
2019-02-15T20:29:20.534Z,44.60
2019-02-15T20:31:52.178Z,45.80
2019-02-15T20:34:23.114Z,46.30
2019-02-15T20:36:55.350Z,46.20
2019-02-15T20:39:25.294Z,46.20
2019-02-15T20:41:56.514Z,46.50
2019-02-15T20:44:25.871Z,44.10
2019-02-15T20:46:56.903Z,43.40
2019-02-15T20:49:26.294Z,43.90
2019-02-15T20:51:56.441Z,43.40
2019-02-15T20:54:27.620Z,44.10
2019-02-15T20:57:01.066Z,43.40
2019-02-15T20:59:30.734Z,43.20
2019-02-15T21:02:01.214Z,43.10
2019-02-15T21:04:33.042Z,43.30
2019-02-15T21:07:04.018Z,44.70
2019-02-15T21:09:34.140Z,44.60
2019-02-15T21:12:03.582Z,43.80
2019-02-15T21:14:38.226Z,43.50
2019-02-15T21:17:11.078Z,42.70
2019-02-15T21:19:41.619Z,41.50
2019-02-15T21:22:10.956Z,41.80
2019-02-15T21:24:42.002Z,42.30
2019-02-15T21:27:11.532Z,43.40
2019-02-15T21:29:42.352Z,43.50
2019-02-15T21:32:12.973Z,43.70
2019-02-15T21:34:45.027Z,44.50
2019-02-15T21:37:16.378Z,44.70
2019-02-15T21:39:49.077Z,44.80
2019-02-15T21:42:21.019Z,44.50
2019-02-15T21:44:50.405Z,44.00
2019-02-15T21:47:21.085Z,44.00
2019-02-15T21:49:51.285Z,44.30
2019-02-15T21:52:20.592Z,44.30
2019-02-15T21:54:51.168Z,45.10
2019-02-15T21:57:21.297Z,45.50
2019-02-15T21:59:51.094Z,44.60
2019-02-15T22:02:21.018Z,43.50
2019-02-15T22:04:55.108Z,42.80
2019-02-15T22:07:25.136Z,42.90
2019-02-15T22:09:56.478Z,42.80
2019-02-15T22:12:27.055Z,42.60
2019-02-15T22:14:57.113Z,42.80
2019-02-15T22:17:26.385Z,43.80
2019-02-15T22:19:58.261Z,43.90
2019-02-15T22:22:29.262Z,44.20
2019-02-15T22:24:59.943Z,44.70
2019-02-15T22:27:29.816Z,45.10
2019-02-15T22:30:00.433Z,44.40
2019-02-15T22:32:33.451Z,45.00
2019-02-15T22:35:04.223Z,46.20
2019-02-15T22:37:34.048Z,45.90
2019-02-15T22:40:34.459Z,44.70
2019-02-15T22:43:20.709Z,44.60
2019-02-15T22:45:51.234Z,44.70
2019-02-15T22:48:21.940Z,45.20
2019-02-15T22:50:53.070Z,44.70
2019-02-15T22:53:23.453Z,44.90
2019-02-15T22:55:54.773Z,46.40
2019-02-15T22:58:26.095Z,47.70
2019-02-15T23:01:10.525Z,48.40
2019-02-15T23:03:40.954Z,48.80
2019-02-15T23:06:11.676Z,48.50
2019-02-15T23:08:41.517Z,47.90
2019-02-15T23:11:10.877Z,47.80
2019-02-15T23:13:41.622Z,48.30
2019-02-15T23:16:12.757Z,49.30
2019-02-15T23:18:44.114Z,51.10
2019-02-15T23:21:14.411Z,52.70
2019-02-15T23:23:45.970Z,53.80
2019-02-15T23:26:18.292Z,52.50
2019-02-15T23:28:47.786Z,52.00
2019-02-15T23:31:17.715Z,52.10
2019-02-15T23:33:49.653Z,50.80
2019-02-15T23:36:20.965Z,51.50
2019-02-15T23:38:50.792Z,53.90
2019-02-15T23:41:20.648Z,55.50
2019-02-15T23:43:49.672Z,56.40
2019-02-15T23:46:19.005Z,57.10
2019-02-15T23:48:48.791Z,57.70
2019-02-15T23:51:19.091Z,57.40
2019-02-15T23:53:49.830Z,57.10
2019-02-15T23:56:20.222Z,56.60
2019-02-15T23:58:49.205Z,57.60
